EDNY

Friedrichshafen Airport

Airport
ICAO code
EDNY
IATA Code
FDH
Summary
ICAO Region
EUR
ICAO Territory
Location

Friedrichshafen, Baden-Württemberg

Serving
Lake Constance/Bodensee
Elevation
1358 ft
Coordinates
47° 40' 20" N , 9° 30' 44" E
KCC
Cfb
Metar
Observation
EDNY 170750Z VRB02KT CAVOK 21/15 Q1013
Station
Friedrichshafen
Date/Time
2022-08-17 07:50:00
Wind speed
02 kts
Lowest cloud amount
clouds and visibility OK
Temperature
21°C
Dew point
15°C
Humidity
68%
QNH
1013 hPa
Weather condition
n/a

Friedrichshafen Airport (also known as Bodensee Airport Friedrichshafen) is a minor international airport 3km north of Friedrichshafen, Germany, on the banks of Lake Constance.

Climatology

Temperate Marine climate/Oceanic climate (Köppen climate classification Cfb) - Moderately cool summer and comparatively warm winter.

Runways

Designator Length Width Surface Rops
6/24 2356 45 ASP Yes/Yes

Airport map

Aerial View

SKYbrary Partners:

Safety knowledge contributed by: